createdAt,value
2023-05-24T00:00:45.261Z,114.82
2023-05-24T00:01:45.270Z,115.64
2023-05-24T00:02:45.283Z,113.72
2023-05-24T00:03:45.388Z,114.18
2023-05-24T00:04:45.414Z,116.65
2023-05-24T00:05:45.205Z,119.96
2023-05-24T00:06:45.221Z,123.35
2023-05-24T00:07:45.231Z,124.14
2023-05-24T00:08:45.215Z,123.99
2023-05-24T00:09:45.178Z,123.50
2023-05-24T00:10:45.203Z,125.00
2023-05-24T00:11:45.165Z,127.09
2023-05-24T00:12:45.172Z,130.23
2023-05-24T00:13:45.173Z,131.00
2023-05-24T00:14:45.154Z,131.71
2023-05-24T00:15:45.147Z,133.70
2023-05-24T00:16:45.163Z,133.09
2023-05-24T00:17:45.177Z,130.92
2023-05-24T00:18:45.142Z,130.28
2023-05-24T00:19:45.147Z,131.78
2023-05-24T00:20:45.389Z,132.51
2023-05-24T00:21:45.092Z,132.67
2023-05-24T00:22:45.107Z,135.26
2023-05-24T00:23:45.093Z,137.03
2023-05-24T00:24:45.108Z,138.30
2023-05-24T00:25:45.106Z,140.92
2023-05-24T00:26:45.086Z,141.35
2023-05-24T00:27:45.084Z,138.96
2023-05-24T00:28:45.075Z,141.06
2023-05-24T00:29:45.040Z,140.45
2023-05-24T00:30:45.125Z,142.17
2023-05-24T00:31:45.199Z,142.47
2023-05-24T00:32:45.081Z,140.49
2023-05-24T00:33:45.031Z,142.12
2023-05-24T00:34:45.037Z,141.08
2023-05-24T00:35:45.035Z,140.63
2023-05-24T00:36:45.065Z,140.89
2023-05-24T00:37:45.087Z,139.08
2023-05-24T00:38:45.004Z,139.61
2023-05-24T00:39:44.981Z,141.01
2023-05-24T00:40:44.999Z,135.99
2023-05-24T00:41:44.998Z,138.58
2023-05-24T00:42:44.995Z,141.07
2023-05-24T00:43:44.979Z,140.08
2023-05-24T00:44:44.949Z,138.87
2023-05-24T00:45:44.959Z,137.18
2023-05-24T00:46:44.966Z,136.90
2023-05-24T00:47:44.949Z,138.18
2023-05-24T00:48:44.947Z,135.80
2023-05-24T00:49:44.973Z,132.01
2023-05-24T00:50:44.905Z,133.55
2023-05-24T00:51:44.911Z,135.68
2023-05-24T00:52:44.952Z,131.85
2023-05-24T00:53:44.916Z,126.81
2023-05-24T00:54:44.875Z,127.55
2023-05-24T00:55:44.896Z,127.32
2023-05-24T00:56:44.876Z,126.06
2023-05-24T00:57:44.855Z,130.94
2023-05-24T00:58:44.888Z,126.96
2023-05-24T00:59:44.849Z,123.17
2023-05-24T01:00:44.866Z,124.82
2023-05-24T01:01:44.908Z,126.73
2023-05-24T01:02:44.886Z,129.65
2023-05-24T01:03:44.906Z,124.86
2023-05-24T01:04:44.831Z,125.48
2023-05-24T01:05:44.800Z,128.12
2023-05-24T01:06:44.861Z,131.17
2023-05-24T01:07:44.803Z,133.16
2023-05-24T01:08:44.805Z,133.44
2023-05-24T01:09:44.797Z,129.88
2023-05-24T01:10:44.857Z,126.30
2023-05-24T01:11:44.804Z,127.45
2023-05-24T01:12:44.779Z,129.29
2023-05-24T01:13:44.769Z,125.42
2023-05-24T01:14:44.796Z,128.29
2023-05-24T01:15:44.825Z,127.15
2023-05-24T01:16:44.771Z,126.64
2023-05-24T01:17:44.776Z,124.78
2023-05-24T01:18:44.773Z,125.16
2023-05-24T01:19:44.813Z,123.45
2023-05-24T01:20:45.283Z,124.95
2023-05-24T01:21:44.806Z,125.87
2023-05-24T01:22:44.778Z,124.39
2023-05-24T01:23:44.828Z,127.39
2023-05-24T01:24:44.816Z,129.62
2023-05-24T01:25:44.829Z,132.28
2023-05-24T01:26:44.828Z,129.17
2023-05-24T01:27:44.842Z,127.22
2023-05-24T01:28:44.857Z,128.36
2023-05-24T01:29:44.852Z,129.07
2023-05-24T01:30:44.947Z,130.50
2023-05-24T01:31:44.990Z,128.13
2023-05-24T01:32:44.898Z,128.50
2023-05-24T01:33:44.907Z,126.30
2023-05-24T01:34:44.916Z,127.26
2023-05-24T01:35:44.928Z,127.80
2023-05-24T01:36:44.929Z,125.60
2023-05-24T01:37:44.925Z,125.05
2023-05-24T01:38:44.957Z,128.67
2023-05-24T01:39:44.961Z,130.38
2023-05-24T01:40:45.171Z,127.81
2023-05-24T01:41:44.972Z,128.90
2023-05-24T01:42:45.012Z,126.02
2023-05-24T01:43:45.007Z,129.68
2023-05-24T01:44:45.421Z,132.69
2023-05-24T01:45:45.043Z,129.95
2023-05-24T01:46:45.042Z,129.59
2023-05-24T01:47:45.128Z,127.54
2023-05-24T01:48:45.062Z,129.61
2023-05-24T01:49:45.077Z,128.97
2023-05-24T01:50:45.093Z,127.45
2023-05-24T01:51:45.149Z,125.59
2023-05-24T01:52:45.091Z,125.15
2023-05-24T01:53:45.122Z,127.52
2023-05-24T01:54:45.144Z,125.22
2023-05-24T01:55:45.139Z,124.58
2023-05-24T01:56:45.168Z,126.10
2023-05-24T01:57:45.159Z,126.35
2023-05-24T01:58:45.180Z,125.59
2023-05-24T01:59:45.149Z,122.65
2023-05-24T02:00:45.345Z,126.79
2023-05-24T02:01:45.181Z,126.20
2023-05-24T02:02:45.335Z,126.69
2023-05-24T02:03:45.186Z,127.20
2023-05-24T02:04:45.184Z,127.55
2023-05-24T02:05:45.217Z,128.07
2023-05-24T02:06:45.244Z,128.86
2023-05-24T02:07:45.215Z,127.63
2023-05-24T02:08:45.228Z,125.12
2023-05-24T02:09:45.271Z,124.97
2023-05-24T02:10:45.266Z,122.98
2023-05-24T02:11:45.242Z,119.17
2023-05-24T02:12:45.250Z,118.18
2023-05-24T02:13:45.282Z,117.30
2023-05-24T02:14:45.300Z,116.29
2023-05-24T02:15:45.324Z,121.91
2023-05-24T02:16:45.292Z,119.75
2023-05-24T02:17:45.303Z,120.12
2023-05-24T02:18:45.323Z,119.48
2023-05-24T02:19:45.324Z,121.12
2023-05-24T02:20:45.614Z,123.11
2023-05-24T02:21:45.329Z,123.53
2023-05-24T02:22:45.351Z,126.39
2023-05-24T02:23:45.324Z,123.55
2023-05-24T02:24:45.357Z,122.39
2023-05-24T02:25:45.377Z,121.25
2023-05-24T02:26:45.374Z,118.28
2023-05-24T02:27:45.379Z,121.33
2023-05-24T02:28:45.387Z,120.95
2023-05-24T02:29:45.417Z,119.28
2023-05-24T02:30:45.619Z,118.36
2023-05-24T02:31:45.418Z,115.59
2023-05-24T02:32:45.559Z,119.16
2023-05-24T02:33:45.419Z,119.79
2023-05-24T02:34:45.477Z,122.24
2023-05-24T02:35:45.448Z,123.72
2023-05-24T02:36:45.460Z,118.46
2023-05-24T02:37:45.455Z,116.05
2023-05-24T02:38:45.476Z,116.31
2023-05-24T02:39:45.473Z,118.35
2023-05-24T02:40:45.513Z,118.49
2023-05-24T02:41:45.526Z,121.69
2023-05-24T02:42:45.531Z,123.22
2023-05-24T02:43:45.518Z,127.08
2023-05-24T02:44:45.556Z,122.43
2023-05-24T02:45:45.550Z,125.56
2023-05-24T02:46:45.670Z,119.76
2023-05-24T02:47:45.622Z,118.80
2023-05-24T02:48:45.612Z,117.49
2023-05-24T02:49:45.589Z,113.59
2023-05-24T02:50:45.623Z,117.52
2023-05-24T02:51:45.620Z,118.38
2023-05-24T02:52:45.653Z,120.15
2023-05-24T02:53:45.657Z,119.70
2023-05-24T02:54:45.655Z,116.58
2023-05-24T02:55:45.660Z,112.98
2023-05-24T02:56:45.653Z,109.21
2023-05-24T02:57:45.717Z,112.05
2023-05-24T02:58:45.724Z,106.03
2023-05-24T02:59:45.737Z,110.43
2023-05-24T03:00:45.741Z,108.93
2023-05-24T03:01:45.893Z,105.41
2023-05-24T03:02:45.798Z,108.00
2023-05-24T03:03:45.799Z,109.41
2023-05-24T03:04:45.757Z,111.30
2023-05-24T03:05:45.770Z,112.70
2023-05-24T03:06:45.771Z,109.79
2023-05-24T03:07:45.774Z,107.90
2023-05-24T03:08:45.804Z,110.16
2023-05-24T03:09:45.812Z,111.77
2023-05-24T03:10:45.808Z,114.26
2023-05-24T03:11:45.824Z,114.26
2023-05-24T03:12:45.860Z,109.79
2023-05-24T03:13:45.861Z,108.54
2023-05-24T03:14:45.862Z,105.86
2023-05-24T03:15:45.923Z,107.11
2023-05-24T03:16:45.947Z,112.53
2023-05-24T03:17:45.931Z,112.32
2023-05-24T03:18:45.922Z,113.30
2023-05-24T03:19:45.920Z,110.22
2023-05-24T03:20:45.958Z,105.59
2023-05-24T03:21:45.950Z,103.60
2023-05-24T03:22:45.977Z,109.36
2023-05-24T03:23:46.004Z,108.81
2023-05-24T03:24:46.007Z,109.84
2023-05-24T03:25:46.004Z,105.94
2023-05-24T03:26:46.012Z,107.14
2023-05-24T03:27:46.009Z,112.27
2023-05-24T03:28:46.048Z,111.64
2023-05-24T03:29:46.037Z,109.97
2023-05-24T03:30:46.049Z,106.26
2023-05-24T03:31:46.156Z,105.69
2023-05-24T03:32:46.060Z,109.55
2023-05-24T03:33:46.045Z,111.74
2023-05-24T03:34:46.096Z,113.06
2023-05-24T03:35:46.102Z,110.88
2023-05-24T03:36:46.114Z,111.39
2023-05-24T03:37:46.101Z,113.56
2023-05-24T03:38:46.114Z,115.02
2023-05-24T03:39:46.146Z,118.07
2023-05-24T03:40:46.131Z,115.78
2023-05-24T03:41:46.156Z,111.42
2023-05-24T03:42:46.128Z,112.90
2023-05-24T03:43:46.168Z,109.81
2023-05-24T03:44:46.154Z,109.74
2023-05-24T03:45:46.209Z,113.22
2023-05-24T03:46:46.168Z,115.71
2023-05-24T03:47:46.233Z,120.33
2023-05-24T03:48:46.244Z,117.12
2023-05-24T03:49:46.245Z,117.44
2023-05-24T03:50:46.319Z,115.37
2023-05-24T03:51:46.273Z,108.78
2023-05-24T03:52:46.251Z,107.55
2023-05-24T03:53:46.262Z,112.81
2023-05-24T03:54:46.267Z,113.10
2023-05-24T03:55:46.303Z,112.59
2023-05-24T03:56:46.296Z,111.06
2023-05-24T03:57:46.301Z,108.84
2023-05-24T03:58:46.327Z,111.28
2023-05-24T03:59:46.296Z,112.86
2023-05-24T04:00:46.307Z,110.75
2023-05-24T04:01:46.346Z,106.57
2023-05-24T04:02:46.390Z,110.43
2023-05-24T04:03:46.451Z,109.62
2023-05-24T04:04:46.376Z,114.82
2023-05-24T04:05:46.366Z,112.47
2023-05-24T04:06:46.380Z,106.67
2023-05-24T04:07:46.558Z,107.37
2023-05-24T04:08:46.399Z,112.17
2023-05-24T04:09:46.427Z,107.20
2023-05-24T04:10:46.455Z,110.17
2023-05-24T04:11:46.454Z,112.38
2023-05-24T04:12:46.470Z,108.51
2023-05-24T04:13:46.450Z,106.10
2023-05-24T04:14:46.506Z,110.51
2023-05-24T04:15:46.502Z,113.03
2023-05-24T04:16:46.554Z,116.13
2023-05-24T04:17:46.666Z,115.19
2023-05-24T04:18:46.692Z,110.29
2023-05-24T04:19:46.525Z,110.95
2023-05-24T04:20:46.588Z,109.72
2023-05-24T04:21:46.634Z,114.51
2023-05-24T04:22:46.632Z,116.30
2023-05-24T04:23:46.623Z,114.12
2023-05-24T04:24:46.685Z,108.64
2023-05-24T04:25:46.649Z,110.65
2023-05-24T04:26:46.651Z,113.39
2023-05-24T04:27:46.654Z,116.63
2023-05-24T04:28:46.698Z,118.17
2023-05-24T04:29:46.686Z,116.37
2023-05-24T04:30:46.716Z,113.99
2023-05-24T04:31:46.763Z,110.47
2023-05-24T04:32:46.869Z,112.12
2023-05-24T04:33:46.765Z,110.86
2023-05-24T04:34:46.788Z,110.80
2023-05-24T04:35:46.813Z,109.54
2023-05-24T04:36:46.798Z,114.56
2023-05-24T04:37:46.836Z,117.71
2023-05-24T04:38:46.864Z,118.28
2023-05-24T04:39:46.900Z,117.51
2023-05-24T04:40:46.886Z,117.45
2023-05-24T04:41:46.902Z,116.63
2023-05-24T04:42:46.949Z,115.84
2023-05-24T04:43:46.945Z,114.87
2023-05-24T04:44:46.961Z,115.35
2023-05-24T04:45:46.974Z,113.37
2023-05-24T04:46:47.037Z,116.79
2023-05-24T04:47:47.043Z,120.16
2023-05-24T04:48:47.013Z,118.57
2023-05-24T04:49:47.015Z,118.78
2023-05-24T04:50:47.052Z,115.36
2023-05-24T04:51:47.084Z,115.72
2023-05-24T04:52:47.122Z,117.71
2023-05-24T04:53:47.146Z,116.23
2023-05-24T04:54:47.124Z,113.72
2023-05-24T04:55:47.169Z,115.25
2023-05-24T04:56:47.170Z,119.34
2023-05-24T04:57:47.201Z,115.27
2023-05-24T04:58:47.226Z,114.08
2023-05-24T04:59:47.238Z,109.97
2023-05-24T05:00:54.253Z,114.24
2023-05-24T05:01:47.295Z,114.35
2023-05-24T05:02:47.349Z,114.42
2023-05-24T05:03:47.284Z,114.88
2023-05-24T05:04:47.231Z,115.44
2023-05-24T05:05:47.204Z,114.30
2023-05-24T05:06:47.226Z,115.66
2023-05-24T05:07:47.221Z,113.43
2023-05-24T05:08:47.203Z,112.51
2023-05-24T05:09:47.191Z,117.70
2023-05-24T05:10:47.219Z,115.72
2023-05-24T05:11:47.163Z,114.82
2023-05-24T05:12:47.217Z,118.02
2023-05-24T05:13:47.202Z,117.01
2023-05-24T05:14:47.175Z,119.33
2023-05-24T05:15:47.160Z,121.08
2023-05-24T05:16:47.433Z,117.76
2023-05-24T05:17:47.214Z,118.67
2023-05-24T05:18:47.151Z,117.97
2023-05-24T05:19:47.119Z,122.52
2023-05-24T05:20:47.452Z,126.45
2023-05-24T05:21:47.129Z,122.41
2023-05-24T05:22:47.123Z,120.75
2023-05-24T05:23:47.093Z,122.70
2023-05-24T05:24:47.099Z,121.07
2023-05-24T05:25:47.124Z,123.23
2023-05-24T05:26:47.081Z,121.98
2023-05-24T05:27:47.111Z,120.74
2023-05-24T05:28:47.067Z,124.07
2023-05-24T05:29:47.063Z,125.22
2023-05-24T05:30:47.055Z,124.56
2023-05-24T05:31:47.080Z,126.04
2023-05-24T05:32:47.321Z,124.92
2023-05-24T05:33:47.039Z,123.54
2023-05-24T05:34:47.044Z,126.55
2023-05-24T05:35:47.073Z,126.90
2023-05-24T05:36:47.020Z,115.31
2023-05-24T05:37:47.014Z,113.13
2023-05-24T05:38:47.040Z,113.73
2023-05-24T05:39:46.997Z,110.04
2023-05-24T05:40:47.012Z,106.29
2023-05-24T05:41:47.057Z,109.56
2023-05-24T05:42:46.991Z,109.72
2023-05-24T05:43:47.050Z,112.37
2023-05-24T05:44:46.988Z,114.63
2023-05-24T05:45:53.992Z,116.90
2023-05-24T05:46:46.969Z,117.01
2023-05-24T05:47:47.029Z,117.04
2023-05-24T05:48:46.994Z,114.06
2023-05-24T05:49:47.000Z,115.47
2023-05-24T05:50:46.974Z,109.55
2023-05-24T05:51:47.007Z,109.33
2023-05-24T05:52:46.924Z,107.14
2023-05-24T05:53:46.973Z,101.54
2023-05-24T05:54:46.947Z,100.02
2023-05-24T05:55:46.902Z,96.72
2023-05-24T05:56:46.932Z,96.96
2023-05-24T05:57:46.953Z,97.04
2023-05-24T05:58:46.909Z,94.13
2023-05-24T05:59:46.913Z,92.50
2023-05-24T06:00:46.887Z,89.58
2023-05-24T06:01:46.880Z,88.84
2023-05-24T06:02:47.083Z,89.24
2023-05-24T06:03:47.101Z,89.81
2023-05-24T06:04:46.909Z,93.50
2023-05-24T06:05:46.859Z,90.33
2023-05-24T06:06:46.851Z,88.88
2023-05-24T06:07:46.838Z,88.05
2023-05-24T06:08:46.850Z,88.90
2023-05-24T06:09:46.835Z,90.83
2023-05-24T06:10:46.853Z,90.71
2023-05-24T06:11:46.862Z,91.34
2023-05-24T06:12:46.874Z,92.80
2023-05-24T06:13:46.902Z,95.30
2023-05-24T06:14:46.922Z,95.70
2023-05-24T06:15:46.978Z,96.93
2023-05-24T06:16:46.976Z,99.68
2023-05-24T06:17:47.073Z,100.14
2023-05-24T06:18:57.211Z,108.83
2023-05-24T06:19:48.006Z,109.10
2023-05-24T06:20:47.110Z,109.80
2023-05-24T06:21:47.052Z,111.12
2023-05-24T06:22:46.995Z,112.71
2023-05-24T06:23:46.970Z,114.14
2023-05-24T06:24:46.969Z,116.29
2023-05-24T06:25:46.949Z,119.05
2023-05-24T06:26:46.964Z,119.58
2023-05-24T06:27:46.949Z,118.48
2023-05-24T06:28:46.952Z,118.01
2023-05-24T06:29:46.964Z,117.58
2023-05-24T06:30:47.033Z,116.47
2023-05-24T06:31:47.042Z,117.75
2023-05-24T06:32:46.958Z,116.53
2023-05-24T06:33:55.977Z,119.18
2023-05-24T06:34:47.910Z,119.30
2023-05-24T06:35:46.937Z,119.66
2023-05-24T06:36:46.897Z,120.59
2023-05-24T06:37:46.918Z,122.36
2023-05-24T06:38:47.006Z,124.05
2023-05-24T06:39:46.888Z,129.38
2023-05-24T06:40:46.889Z,132.20
2023-05-24T06:41:46.873Z,129.60
2023-05-24T06:42:46.856Z,127.53
2023-05-24T06:43:46.848Z,127.32
2023-05-24T06:44:46.850Z,128.96
2023-05-24T06:45:46.848Z,129.19
2023-05-24T06:46:46.901Z,128.41
2023-05-24T06:47:46.864Z,128.67
2023-05-24T06:48:46.886Z,127.00
2023-05-24T06:49:46.851Z,127.43
2023-05-24T06:50:47.095Z,130.63
2023-05-24T06:51:46.920Z,129.54
2023-05-24T06:52:46.813Z,127.97
2023-05-24T06:53:46.775Z,128.94
2023-05-24T06:54:46.793Z,125.41
2023-05-24T06:55:46.782Z,124.78
2023-05-24T06:56:46.872Z,126.59
2023-05-24T06:57:46.761Z,127.63
2023-05-24T06:58:46.789Z,126.78
2023-05-24T06:59:46.810Z,129.85
2023-05-24T07:00:46.984Z,130.19
2023-05-24T07:01:46.934Z,131.55
2023-05-24T07:02:46.888Z,127.59
2023-05-24T07:03:46.889Z,125.44
2023-05-24T07:04:46.949Z,126.29
2023-05-24T07:05:46.923Z,130.08
2023-05-24T07:06:46.961Z,131.30
2023-05-24T07:07:46.981Z,131.23
2023-05-24T07:08:46.948Z,126.41
2023-05-24T07:09:46.956Z,127.19
2023-05-24T07:10:46.962Z,129.02
2023-05-24T07:11:47.035Z,126.55
2023-05-24T07:12:46.972Z,126.11
2023-05-24T07:13:47.080Z,121.26
2023-05-24T07:14:47.027Z,125.50
2023-05-24T07:15:47.071Z,128.41
2023-05-24T07:16:47.075Z,131.67
2023-05-24T07:17:47.073Z,132.53
2023-05-24T07:18:47.064Z,135.92
2023-05-24T07:19:47.075Z,139.05
2023-05-24T07:20:47.435Z,139.20
2023-05-24T07:21:47.105Z,142.81
2023-05-24T07:22:47.117Z,141.71
2023-05-24T07:23:47.189Z,137.87
2023-05-24T07:24:47.138Z,136.30
2023-05-24T07:25:47.116Z,133.82
2023-05-24T07:26:47.097Z,132.21
2023-05-24T07:27:47.110Z,131.51
2023-05-24T07:28:47.149Z,131.48
2023-05-24T07:29:48.410Z,133.82
2023-05-24T07:30:47.234Z,132.79
2023-05-24T07:31:47.178Z,135.07
2023-05-24T07:32:47.312Z,138.16
2023-05-24T07:33:47.522Z,141.86
2023-05-24T07:34:47.151Z,139.68
2023-05-24T07:35:47.155Z,140.11
2023-05-24T07:36:47.168Z,138.46
2023-05-24T07:37:47.400Z,142.09
2023-05-24T07:38:48.163Z,143.02
2023-05-24T07:39:48.050Z,136.25
2023-05-24T07:40:47.282Z,131.04
2023-05-24T07:41:49.396Z,127.96
2023-05-24T07:42:47.884Z,132.57
2023-05-24T07:43:49.085Z,131.31
2023-05-24T07:44:47.879Z,135.06
2023-05-24T07:45:47.679Z,142.07
2023-05-24T07:46:47.898Z,142.27
2023-05-24T07:47:47.469Z,137.74
2023-05-24T07:48:47.419Z,131.97
2023-05-24T07:49:47.411Z,135.06
2023-05-24T07:50:47.393Z,134.39
2023-05-24T07:51:47.444Z,131.05
2023-05-24T07:52:47.421Z,132.37
2023-05-24T07:53:47.453Z,137.43
2023-05-24T07:54:47.416Z,140.33
2023-05-24T07:55:47.439Z,136.48
2023-05-24T07:56:47.472Z,139.11
2023-05-24T07:57:47.460Z,136.44
2023-05-24T07:58:47.557Z,133.26
2023-05-24T07:59:47.612Z,132.29
2023-05-24T08:00:47.613Z,132.42
2023-05-24T08:01:47.846Z,125.46
2023-05-24T08:02:47.728Z,124.16
2023-05-24T08:03:47.515Z,119.13
2023-05-24T08:04:47.506Z,118.50
2023-05-24T08:05:47.485Z,124.43
2023-05-24T08:06:47.536Z,129.13
2023-05-24T08:07:47.634Z,131.75
2023-05-24T08:08:47.499Z,131.33
2023-05-24T08:09:47.512Z,129.73
2023-05-24T08:10:47.572Z,130.76
2023-05-24T08:11:47.481Z,136.28
2023-05-24T08:12:48.172Z,131.47
2023-05-24T08:13:47.884Z,129.09
2023-05-24T08:14:49.035Z,132.38
2023-05-24T08:15:47.518Z,132.59
2023-05-24T08:16:47.526Z,134.82
2023-05-24T08:17:47.559Z,132.54
2023-05-24T08:18:47.495Z,135.14
2023-05-24T08:19:47.516Z,132.76
2023-05-24T08:20:47.557Z,133.15
2023-05-24T08:21:47.485Z,130.94
2023-05-24T08:22:47.486Z,127.41
2023-05-24T08:23:47.559Z,123.21
2023-05-24T08:24:47.501Z,119.32
2023-05-24T08:25:47.467Z,126.97
2023-05-24T08:26:47.459Z,127.04
2023-05-24T08:27:47.548Z,125.81
2023-05-24T08:28:47.504Z,127.47
2023-05-24T08:29:47.491Z,124.31
2023-05-24T08:30:47.564Z,128.27
2023-05-24T08:31:47.545Z,130.67
2023-05-24T08:32:47.519Z,129.13
2023-05-24T08:33:47.470Z,129.17
2023-05-24T08:34:47.471Z,127.75
2023-05-24T08:35:47.521Z,123.95
2023-05-24T08:36:47.458Z,125.85
2023-05-24T08:37:47.463Z,126.58
2023-05-24T08:38:48.614Z,129.10
2023-05-24T08:39:47.480Z,130.87
2023-05-24T08:40:47.439Z,132.09
2023-05-24T08:41:57.398Z,134.07
2023-05-24T08:42:48.442Z,134.09
2023-05-24T08:43:47.554Z,131.88
2023-05-24T08:44:47.412Z,133.77
2023-05-24T08:45:47.540Z,134.07
2023-05-24T08:46:47.503Z,135.95
2023-05-24T08:47:47.445Z,133.51
2023-05-24T08:48:47.706Z,137.45
2023-05-24T08:49:47.411Z,134.15
2023-05-24T08:50:47.364Z,140.84
2023-05-24T08:51:47.753Z,143.19
2023-05-24T08:52:47.937Z,140.00
2023-05-24T08:53:49.033Z,142.54
2023-05-24T08:54:48.067Z,142.28
2023-05-24T08:55:47.495Z,140.95
2023-05-24T08:56:48.074Z,145.71
2023-05-24T08:57:48.348Z,144.96
2023-05-24T08:58:47.738Z,145.06
2023-05-24T08:59:47.880Z,143.73
2023-05-24T09:00:48.600Z,145.20
2023-05-24T09:01:48.378Z,146.43
2023-05-24T09:02:47.815Z,145.99
2023-05-24T09:03:48.361Z,149.61
2023-05-24T09:04:47.720Z,150.71
2023-05-24T09:05:48.113Z,147.03
2023-05-24T09:06:48.998Z,146.04
2023-05-24T09:07:47.571Z,150.01
2023-05-24T09:08:48.191Z,150.30
2023-05-24T09:09:47.676Z,149.55
2023-05-24T09:10:54.884Z,152.14
2023-05-24T09:11:48.640Z,152.29
2023-05-24T09:12:48.345Z,152.71
2023-05-24T09:13:47.262Z,153.39
2023-05-24T09:14:47.276Z,154.67
2023-05-24T09:15:47.527Z,154.30
2023-05-24T09:16:47.312Z,153.88
2023-05-24T09:17:47.290Z,159.71
2023-05-24T09:18:47.220Z,158.03
2023-05-24T09:19:47.215Z,154.02
2023-05-24T09:20:47.548Z,156.96
2023-05-24T09:21:47.570Z,155.55
2023-05-24T09:22:47.906Z,150.79
2023-05-24T09:23:49.330Z,147.77
2023-05-24T09:24:48.523Z,146.75
2023-05-24T09:25:47.382Z,146.13
2023-05-24T09:26:47.361Z,149.42
2023-05-24T09:27:48.919Z,151.59
2023-05-24T09:28:47.402Z,153.57
2023-05-24T09:29:47.327Z,151.73
2023-05-24T09:30:47.350Z,151.08
2023-05-24T09:31:47.395Z,150.80
2023-05-24T09:32:47.409Z,147.51
2023-05-24T09:33:47.427Z,146.01
2023-05-24T09:34:47.404Z,139.88
2023-05-24T09:35:47.432Z,140.44
2023-05-24T09:36:47.436Z,132.63
2023-05-24T09:37:47.469Z,120.57
2023-05-24T09:38:47.493Z,108.08
2023-05-24T09:39:47.586Z,103.26
2023-05-24T09:40:47.495Z,108.97
2023-05-24T09:41:47.540Z,147.22
2023-05-24T09:42:47.505Z,137.76
2023-05-24T09:43:47.498Z,124.19
2023-05-24T09:44:47.602Z,65.43
2023-05-24T09:45:47.642Z,66.26
2023-05-24T09:46:47.656Z,50.65
2023-05-24T09:47:47.588Z,51.58
2023-05-24T09:48:47.617Z,49.89
2023-05-24T09:49:49.372Z,50.52
2023-05-24T09:50:47.739Z,66.31
2023-05-24T09:51:47.892Z,79.14
2023-05-24T09:52:47.755Z,116.14
2023-05-24T09:53:47.815Z,94.78
2023-05-24T09:54:48.126Z,55.05
2023-05-24T09:55:47.939Z,40.95
2023-05-24T09:56:48.007Z,30.59
2023-05-24T09:57:48.049Z,37.44
2023-05-24T09:58:48.127Z,40.24
2023-05-24T09:59:48.202Z,42.02
2023-05-24T10:00:48.443Z,46.89
2023-05-24T10:01:48.368Z,49.64
2023-05-24T10:03:48.402Z,46.02
2023-05-24T10:04:48.341Z,48.36
2023-05-24T10:05:48.332Z,50.77
2023-05-24T10:06:48.329Z,42.26
2023-05-24T10:07:48.421Z,37.69
2023-05-24T10:08:48.300Z,39.10
2023-05-24T10:09:48.590Z,49.61
2023-05-24T10:10:48.292Z,27.11
2023-05-24T10:11:48.330Z,14.90
2023-05-24T10:12:48.312Z,18.90
2023-05-24T10:13:48.302Z,23.25
2023-05-24T10:14:48.270Z,25.00
2023-05-24T10:15:48.308Z,28.46
2023-05-24T10:16:48.272Z,29.08
2023-05-24T10:17:48.302Z,25.25
2023-05-24T10:18:48.325Z,25.00
2023-05-24T10:19:48.254Z,25.00
2023-05-24T10:20:48.746Z,28.15
2023-05-24T10:21:48.270Z,31.65
2023-05-24T10:22:48.277Z,31.33
2023-05-24T10:23:48.243Z,34.47
2023-05-24T10:24:48.240Z,37.98
2023-05-24T10:25:48.233Z,70.04
2023-05-24T10:26:48.245Z,88.82
2023-05-24T10:27:48.198Z,93.32
2023-05-24T10:28:48.205Z,89.52
2023-05-24T10:29:48.163Z,83.94
2023-05-24T10:30:48.363Z,73.97
2023-05-24T10:31:48.356Z,67.22
2023-05-24T10:32:48.231Z,64.43
2023-05-24T10:33:48.150Z,60.45
2023-05-24T10:34:48.155Z,62.78
2023-05-24T10:35:48.634Z,61.56
2023-05-24T10:36:48.133Z,50.90
2023-05-24T10:37:48.111Z,47.01
2023-05-24T10:38:48.125Z,38.00
2023-05-24T10:39:48.143Z,29.56
2023-05-24T10:40:48.795Z,26.94
2023-05-24T10:41:48.128Z,29.15
2023-05-24T10:42:48.078Z,35.01
2023-05-24T10:44:00.698Z,39.76
2023-05-24T10:44:49.102Z,39.86
2023-05-24T10:45:48.075Z,35.27
2023-05-24T10:46:48.162Z,34.43
2023-05-24T10:47:48.060Z,34.24
2023-05-24T10:48:48.065Z,35.14
2023-05-24T10:49:48.053Z,39.28
2023-05-24T10:50:48.034Z,45.50
2023-05-24T10:51:48.039Z,53.86
2023-05-24T10:52:48.024Z,50.26
2023-05-24T10:53:48.026Z,43.92
2023-05-24T10:55:02.789Z,39.01
2023-05-24T10:55:48.982Z,34.94
2023-05-24T10:56:47.991Z,29.75
2023-05-24T10:57:47.986Z,34.21
2023-05-24T10:58:48.000Z,38.50
2023-05-24T10:59:47.956Z,41.30
2023-05-24T11:00:48.107Z,39.30
2023-05-24T11:01:48.007Z,37.36
2023-05-24T11:02:47.988Z,41.71
2023-05-24T11:03:47.949Z,40.51
2023-05-24T11:04:47.956Z,41.42
2023-05-24T11:05:48.028Z,44.93
2023-05-24T11:06:47.935Z,47.23
2023-05-24T11:07:47.905Z,45.67
2023-05-24T11:08:47.928Z,40.33
2023-05-24T11:09:47.890Z,36.73
2023-05-24T11:10:48.116Z,35.10
2023-05-24T11:11:48.655Z,39.48
2023-05-24T11:12:47.867Z,41.19
2023-05-24T11:13:47.896Z,43.50
2023-05-24T11:14:47.930Z,47.11
2023-05-24T11:15:48.124Z,51.32
2023-05-24T11:16:48.074Z,57.24
2023-05-24T11:17:48.062Z,62.81
2023-05-24T11:18:48.055Z,61.75
2023-05-24T11:19:48.077Z,59.61
2023-05-24T11:20:48.402Z,57.96
2023-05-24T11:21:48.120Z,57.88
2023-05-24T11:22:48.208Z,64.94
2023-05-24T11:23:48.208Z,67.78
2023-05-24T11:24:48.218Z,61.48
2023-05-24T11:25:48.661Z,53.25
2023-05-24T11:26:48.293Z,52.73
2023-05-24T11:27:48.362Z,57.90
2023-05-24T11:28:48.381Z,70.72
2023-05-24T11:29:48.587Z,91.94
2023-05-24T11:30:48.604Z,112.78
2023-05-24T11:31:48.519Z,140.21
2023-05-24T11:32:48.534Z,144.70
2023-05-24T11:33:48.506Z,151.60
2023-05-24T11:34:48.517Z,153.00
2023-05-24T11:35:48.668Z,153.49
2023-05-24T11:36:48.513Z,158.27
2023-05-24T11:37:48.536Z,168.63
2023-05-24T11:38:48.539Z,183.11
2023-05-24T11:39:48.486Z,195.99
2023-05-24T11:40:48.672Z,215.27
2023-05-24T11:41:48.568Z,210.24
2023-05-24T11:42:48.562Z,200.61
2023-05-24T11:43:48.595Z,186.70
2023-05-24T11:44:48.609Z,178.79
2023-05-24T11:45:48.713Z,176.10
2023-05-24T11:46:48.604Z,168.70
2023-05-24T11:47:48.642Z,166.62
2023-05-24T11:48:48.567Z,158.13
2023-05-24T11:49:48.592Z,156.69
2023-05-24T11:50:50.227Z,150.54
2023-05-24T11:51:48.708Z,152.01
2023-05-24T11:52:48.628Z,153.01
2023-05-24T11:53:48.634Z,151.58
2023-05-24T11:54:48.600Z,149.79
2023-05-24T11:55:48.673Z,150.13
2023-05-24T11:56:48.661Z,152.16
2023-05-24T11:57:48.726Z,153.01
2023-05-24T11:58:48.729Z,151.71
2023-05-24T11:59:48.747Z,153.32
2023-05-24T12:00:48.769Z,157.46
2023-05-24T12:01:48.758Z,158.28
2023-05-24T12:02:48.961Z,162.05
2023-05-24T12:03:48.858Z,164.51
2023-05-24T12:04:48.867Z,168.45
2023-05-24T12:05:48.820Z,171.75
2023-05-24T12:06:48.830Z,172.16
2023-05-24T12:07:48.855Z,173.97
2023-05-24T12:08:48.849Z,177.22
2023-05-24T12:09:48.832Z,182.97
2023-05-24T12:10:48.859Z,185.58
2023-05-24T12:11:48.850Z,187.83
2023-05-24T12:12:48.847Z,192.69
2023-05-24T12:13:48.861Z,190.55
2023-05-24T12:14:48.845Z,190.07
2023-05-24T12:15:48.880Z,186.47
2023-05-24T12:16:48.829Z,188.54
2023-05-24T12:17:48.859Z,188.79
2023-05-24T12:19:02.321Z,190.81
2023-05-24T12:19:49.871Z,191.09
2023-05-24T12:20:48.839Z,192.53
2023-05-24T12:21:51.462Z,194.67
2023-05-24T12:22:48.775Z,191.31
2023-05-24T12:23:48.790Z,192.72
2023-05-24T12:24:48.783Z,194.67
2023-05-24T12:25:48.804Z,195.30
2023-05-24T12:26:48.813Z,199.69
2023-05-24T12:27:48.765Z,203.96
2023-05-24T12:28:49.648Z,208.21
2023-05-24T12:29:48.762Z,206.55
2023-05-24T12:30:48.736Z,204.28
2023-05-24T12:31:48.752Z,201.01
2023-05-24T12:32:48.784Z,198.06
2023-05-24T12:33:48.701Z,196.44